sensor_id;sensor_type;location;lat;lon;timestamp;pressure;altitude;pressure_sealevel;temperature
15709;BMP180;7954;51.914;8.420;2023-05-09T00:00:46;100578.13;;;22.34
15709;BMP180;7954;51.914;8.420;2023-05-09T00:03:14;100579.38;;;22.30
15709;BMP180;7954;51.914;8.420;2023-05-09T00:05:42;100570.69;;;22.23
15709;BMP180;7954;51.914;8.420;2023-05-09T00:08:11;100581.53;;;22.20
15709;BMP180;7954;51.914;8.420;2023-05-09T00:10:39;100580.97;;;22.23
15709;BMP180;7954;51.914;8.420;2023-05-09T00:13:07;100578.22;;;22.21
15709;BMP180;7954;51.914;8.420;2023-05-09T00:15:37;100578.41;;;22.23
15709;BMP180;7954;51.914;8.420;2023-05-09T00:18:05;100569.22;;;22.18
15709;BMP180;7954;51.914;8.420;2023-05-09T00:20:33;100572.69;;;22.11
15709;BMP180;7954;51.914;8.420;2023-05-09T00:23:01;100562.56;;;22.13
15709;BMP180;7954;51.914;8.420;2023-05-09T00:25:31;100561.09;;;22.08
15709;BMP180;7954;51.914;8.420;2023-05-09T00:27:59;100559.25;;;22.07
15709;BMP180;7954;51.914;8.420;2023-05-09T00:30:28;100563.31;;;22.05
15709;BMP180;7954;51.914;8.420;2023-05-09T00:32:56;100570.63;;;22.02
15709;BMP180;7954;51.914;8.420;2023-05-09T00:35:25;100559.25;;;22.00
15709;BMP180;7954;51.914;8.420;2023-05-09T00:37:54;100545.66;;;22.01
15709;BMP180;7954;51.914;8.420;2023-05-09T00:40:22;100535.53;;;21.96
15709;BMP180;7954;51.914;8.420;2023-05-09T00:42:51;100545.44;;;21.93
15709;BMP180;7954;51.914;8.420;2023-05-09T00:45:21;100537.53;;;21.91
15709;BMP180;7954;51.914;8.420;2023-05-09T00:47:51;100537.69;;;21.86
15709;BMP180;7954;51.914;8.420;2023-05-09T00:50:19;100538.06;;;21.82
15709;BMP180;7954;51.914;8.420;2023-05-09T00:52:47;100534.00;;;21.77
15709;BMP180;7954;51.914;8.420;2023-05-09T00:55:16;100536.75;;;21.71
15709;BMP180;7954;51.914;8.420;2023-05-09T00:57:44;100532.13;;;21.69
15709;BMP180;7954;51.914;8.420;2023-05-09T01:00:14;100528.97;;;21.64
15709;BMP180;7954;51.914;8.420;2023-05-09T01:02:47;100518.88;;;21.59
15709;BMP180;7954;51.914;8.420;2023-05-09T01:05:16;100518.13;;;21.53
15709;BMP180;7954;51.914;8.420;2023-05-09T01:07:49;100510.69;;;21.42
15709;BMP180;7954;51.914;8.420;2023-05-09T01:10:22;100513.41;;;21.36
15709;BMP180;7954;51.914;8.420;2023-05-09T01:12:55;100510.44;;;21.33
15709;BMP180;7954;51.914;8.420;2023-05-09T01:15:30;100505.47;;;21.28
15709;BMP180;7954;51.914;8.420;2023-05-09T01:18:05;100492.97;;;21.24
15709;BMP180;7954;51.914;8.420;2023-05-09T01:20:37;100494.59;;;21.17
15709;BMP180;7954;51.914;8.420;2023-05-09T01:23:26;100486.34;;;21.19
15709;BMP180;7954;51.914;8.420;2023-05-09T01:26:02;100495.31;;;21.16
15709;BMP180;7954;51.914;8.420;2023-05-09T01:28:35;100496.38;;;21.11
15709;BMP180;7954;51.914;8.420;2023-05-09T01:31:07;100473.22;;;21.04
15709;BMP180;7954;51.914;8.420;2023-05-09T01:33:39;100488.06;;;20.99
15709;BMP180;7954;51.914;8.420;2023-05-09T01:36:11;100469.31;;;20.93
15709;BMP180;7954;51.914;8.420;2023-05-09T01:38:43;100474.16;;;20.78
15709;BMP180;7954;51.914;8.420;2023-05-09T01:41:11;100480.22;;;20.78
15709;BMP180;7954;51.914;8.420;2023-05-09T01:43:41;100476.53;;;20.76
15709;BMP180;7954;51.914;8.420;2023-05-09T01:46:12;100488.44;;;20.76
15709;BMP180;7954;51.914;8.420;2023-05-09T01:48:43;100482.91;;;20.73
15709;BMP180;7954;51.914;8.420;2023-05-09T01:51:12;100485.69;;;20.74
15709;BMP180;7954;51.914;8.420;2023-05-09T01:53:43;100471.09;;;20.68
15709;BMP180;7954;51.914;8.420;2023-05-09T01:56:11;100475.88;;;20.65
15709;BMP180;7954;51.914;8.420;2023-05-09T01:58:40;100461.53;;;20.60
15709;BMP180;7954;51.914;8.420;2023-05-09T02:01:09;100467.38;;;20.59
15709;BMP180;7954;51.914;8.420;2023-05-09T02:03:39;100481.34;;;20.61
15709;BMP180;7954;51.914;8.420;2023-05-09T02:06:07;100464.09;;;20.60
15709;BMP180;7954;51.914;8.420;2023-05-09T02:08:37;100471.25;;;20.63
15709;BMP180;7954;51.914;8.420;2023-05-09T02:11:06;100480.63;;;20.62
15709;BMP180;7954;51.914;8.420;2023-05-09T02:13:33;100469.81;;;20.65
15709;BMP180;7954;51.914;8.420;2023-05-09T02:16:05;100464.47;;;20.63
15709;BMP180;7954;51.914;8.420;2023-05-09T02:18:34;100465.34;;;20.57
15709;BMP180;7954;51.914;8.420;2023-05-09T02:21:04;100469.16;;;20.53
15709;BMP180;7954;51.914;8.420;2023-05-09T02:23:33;100459.66;;;20.52
15709;BMP180;7954;51.914;8.420;2023-05-09T02:26:01;100454.81;;;20.48
15709;BMP180;7954;51.914;8.420;2023-05-09T02:28:31;100453.72;;;20.46
15709;BMP180;7954;51.914;8.420;2023-05-09T02:31:01;100460.31;;;20.44
15709;BMP180;7954;51.914;8.420;2023-05-09T02:33:33;100455.16;;;20.44
15709;BMP180;7954;51.914;8.420;2023-05-09T02:36:06;100460.31;;;20.44
15709;BMP180;7954;51.914;8.420;2023-05-09T02:38:35;100456.41;;;20.41
15709;BMP180;7954;51.914;8.420;2023-05-09T02:41:03;100456.22;;;20.39
15709;BMP180;7954;51.914;8.420;2023-05-09T02:43:31;100460.97;;;20.36
15709;BMP180;7954;51.914;8.420;2023-05-09T02:45:59;100454.53;;;20.33
15709;BMP180;7954;51.914;8.420;2023-05-09T02:48:28;100455.06;;;20.30
15709;BMP180;7954;51.914;8.420;2023-05-09T02:50:56;100460.53;;;20.26
15709;BMP180;7954;51.914;8.420;2023-05-09T02:53:25;100444.53;;;20.22
15709;BMP180;7954;51.914;8.420;2023-05-09T02:55:53;100458.41;;;20.17
15709;BMP180;7954;51.914;8.420;2023-05-09T02:58:21;100449.81;;;20.16
15709;BMP180;7954;51.914;8.420;2023-05-09T03:00:49;100447.19;;;20.09
15709;BMP180;7954;51.914;8.420;2023-05-09T03:03:18;100435.06;;;20.08
15709;BMP180;7954;51.914;8.420;2023-05-09T03:05:47;100444.94;;;20.05
15709;BMP180;7954;51.914;8.420;2023-05-09T03:08:15;100448.75;;;20.02
15709;BMP180;7954;51.914;8.420;2023-05-09T03:10:45;100433.53;;;19.97
15709;BMP180;7954;51.914;8.420;2023-05-09T03:13:13;100425.00;;;19.91
15709;BMP180;7954;51.914;8.420;2023-05-09T03:15:41;100423.47;;;19.86
15709;BMP180;7954;51.914;8.420;2023-05-09T03:18:09;100437.00;;;19.85
15709;BMP180;7954;51.914;8.420;2023-05-09T03:20:37;100427.28;;;19.82
15709;BMP180;7954;51.914;8.420;2023-05-09T03:23:05;100420.31;;;19.81
15709;BMP180;7954;51.914;8.420;2023-05-09T03:25:32;100429.66;;;19.81
15709;BMP180;7954;51.914;8.420;2023-05-09T03:28:02;100422.31;;;19.77
15709;BMP180;7954;51.914;8.420;2023-05-09T03:30:31;100422.81;;;19.74
15709;BMP180;7954;51.914;8.420;2023-05-09T03:32:59;100415.84;;;19.73
15709;BMP180;7954;51.914;8.420;2023-05-09T03:35:27;100414.91;;;19.73
15709;BMP180;7954;51.914;8.420;2023-05-09T03:37:54;100408.88;;;19.72
15709;BMP180;7954;51.914;8.420;2023-05-09T03:40:22;100417.81;;;19.69
15709;BMP180;7954;51.914;8.420;2023-05-09T03:42:50;100415.06;;;19.67
15709;BMP180;7954;51.914;8.420;2023-05-09T03:45:20;100423.44;;;19.66
15709;BMP180;7954;51.914;8.420;2023-05-09T03:47:48;100429.53;;;19.67
15709;BMP180;7954;51.914;8.420;2023-05-09T03:50:15;100414.66;;;19.64
15709;BMP180;7954;51.914;8.420;2023-05-09T03:52:44;100420.50;;;19.63
15709;BMP180;7954;51.914;8.420;2023-05-09T03:55:12;100411.88;;;19.63
15709;BMP180;7954;51.914;8.420;2023-05-09T03:57:41;100404.00;;;19.61
15709;BMP180;7954;51.914;8.420;2023-05-09T04:00:09;100404.00;;;19.61
15709;BMP180;7954;51.914;8.420;2023-05-09T04:02:39;100408.94;;;19.60
15709;BMP180;7954;51.914;8.420;2023-05-09T04:05:08;100401.63;;;19.63
15709;BMP180;7954;51.914;8.420;2023-05-09T04:07:36;100396.50;;;19.63
15709;BMP180;7954;51.914;8.420;2023-05-09T04:10:05;100404.63;;;19.66
15709;BMP180;7954;51.914;8.420;2023-05-09T04:12:33;100393.41;;;19.65
15709;BMP180;7954;51.914;8.420;2023-05-09T04:15:01;100401.00;;;19.71
15709;BMP180;7954;51.914;8.420;2023-05-09T04:17:29;100398.63;;;19.72
15709;BMP180;7954;51.914;8.420;2023-05-09T04:19:58;100406.94;;;19.77
15709;BMP180;7954;51.914;8.420;2023-05-09T04:22:26;100391.56;;;19.77
15709;BMP180;7954;51.914;8.420;2023-05-09T04:24:54;100391.94;;;19.80
15709;BMP180;7954;51.914;8.420;2023-05-09T04:27:22;100406.63;;;19.88
15709;BMP180;7954;51.914;8.420;2023-05-09T04:29:51;100391.56;;;19.96
15709;BMP180;7954;51.914;8.420;2023-05-09T04:32:19;100395.63;;;20.01
15709;BMP180;7954;51.914;8.420;2023-05-09T04:34:48;100396.63;;;20.08
15709;BMP180;7954;51.914;8.420;2023-05-09T04:37:19;100387.34;;;20.16
15709;BMP180;7954;51.914;8.420;2023-05-09T04:39:47;100386.34;;;20.28
15709;BMP180;7954;51.914;8.420;2023-05-09T04:42:15;100385.88;;;20.37
15709;BMP180;7954;51.914;8.420;2023-05-09T04:44:43;100383.34;;;20.44
15709;BMP180;7954;51.914;8.420;2023-05-09T04:47:11;100383.94;;;20.56
15709;BMP180;7954;51.914;8.420;2023-05-09T04:49:39;100384.59;;;20.67
15709;BMP180;7954;51.914;8.420;2023-05-09T04:52:06;100379.91;;;20.77
15709;BMP180;7954;51.914;8.420;2023-05-09T04:54:35;100385.47;;;20.87
15709;BMP180;7954;51.914;8.420;2023-05-09T04:57:03;100386.97;;;20.92
15709;BMP180;7954;51.914;8.420;2023-05-09T04:59:45;100374.31;;;21.00
15709;BMP180;7954;51.914;8.420;2023-05-09T05:02:12;100382.03;;;21.00
15709;BMP180;7954;51.914;8.420;2023-05-09T05:04:41;100370.50;;;21.04
15709;BMP180;7954;51.914;8.420;2023-05-09T05:07:09;100375.09;;;21.06
15709;BMP180;7954;51.914;8.420;2023-05-09T05:09:39;100361.72;;;21.09
15709;BMP180;7954;51.914;8.420;2023-05-09T05:12:07;100365.41;;;21.11
15709;BMP180;7954;51.914;8.420;2023-05-09T05:14:35;100371.84;;;21.14
15709;BMP180;7954;51.914;8.420;2023-05-09T05:17:03;100363.38;;;21.15
15709;BMP180;7954;51.914;8.420;2023-05-09T05:19:32;100359.19;;;21.23
15709;BMP180;7954;51.914;8.420;2023-05-09T05:22:00;100349.13;;;21.31
15709;BMP180;7954;51.914;8.420;2023-05-09T05:24:29;100352.63;;;21.38
15709;BMP180;7954;51.914;8.420;2023-05-09T05:26:59;100347.88;;;21.48
15709;BMP180;7954;51.914;8.420;2023-05-09T05:29:26;100358.22;;;21.55
15709;BMP180;7954;51.914;8.420;2023-05-09T05:31:54;100343.91;;;21.64
15709;BMP180;7954;51.914;8.420;2023-05-09T05:34:22;100350.16;;;21.73
15709;BMP180;7954;51.914;8.420;2023-05-09T05:36:50;100337.28;;;21.87
15709;BMP180;7954;51.914;8.420;2023-05-09T05:39:18;100332.91;;;22.00
15709;BMP180;7954;51.914;8.420;2023-05-09T05:41:46;100317.25;;;22.05
15709;BMP180;7954;51.914;8.420;2023-05-09T05:44:16;100327.34;;;22.18
15709;BMP180;7954;51.914;8.420;2023-05-09T05:46:44;100321.88;;;22.29
15709;BMP180;7954;51.914;8.420;2023-05-09T05:49:11;100326.47;;;22.38
15709;BMP180;7954;51.914;8.420;2023-05-09T05:51:40;100320.88;;;22.49
15709;BMP180;7954;51.914;8.420;2023-05-09T05:54:09;100317.56;;;22.57
15709;BMP180;7954;51.914;8.420;2023-05-09T05:56:38;100318.25;;;22.70
15709;BMP180;7954;51.914;8.420;2023-05-09T05:59:06;100311.00;;;22.88
15709;BMP180;7954;51.914;8.420;2023-05-09T06:01:38;100324.78;;;22.96
15709;BMP180;7954;51.914;8.420;2023-05-09T06:04:06;100317.97;;;23.03
15709;BMP180;7954;51.914;8.420;2023-05-09T06:06:36;100320.84;;;23.13
15709;BMP180;7954;51.914;8.420;2023-05-09T06:09:03;100319.00;;;23.19
15709;BMP180;7954;51.914;8.420;2023-05-09T06:11:33;100312.09;;;23.33
15709;BMP180;7954;51.914;8.420;2023-05-09T06:14:01;100309.06;;;23.44
15709;BMP180;7954;51.914;8.420;2023-05-09T06:16:29;100308.28;;;23.52
15709;BMP180;7954;51.914;8.420;2023-05-09T06:19:09;100296.25;;;23.60
15709;BMP180;7954;51.914;8.420;2023-05-09T06:21:37;100292.88;;;23.68
15709;BMP180;7954;51.914;8.420;2023-05-09T06:24:07;100292.84;;;23.75
15709;BMP180;7954;51.914;8.420;2023-05-09T06:26:49;100292.72;;;23.89
15709;BMP180;7954;51.914;8.420;2023-05-09T06:29:16;100288.59;;;23.97
15709;BMP180;7954;51.914;8.420;2023-05-09T06:31:46;100286.69;;;24.03
15709;BMP180;7954;51.914;8.420;2023-05-09T06:34:15;100286.28;;;24.07
15709;BMP180;7954;51.914;8.420;2023-05-09T06:36:43;100284.13;;;24.19
15709;BMP180;7954;51.914;8.420;2023-05-09T06:39:11;100272.41;;;24.29
15709;BMP180;7954;51.914;8.420;2023-05-09T06:41:39;100271.75;;;24.39
15709;BMP180;7954;51.914;8.420;2023-05-09T06:44:08;100265.22;;;24.49
15709;BMP180;7954;51.914;8.420;2023-05-09T06:46:36;100256.19;;;24.61
15709;BMP180;7954;51.914;8.420;2023-05-09T06:49:05;100256.38;;;24.63
15709;BMP180;7954;51.914;8.420;2023-05-09T06:51:34;100251.84;;;24.68
15709;BMP180;7954;51.914;8.420;2023-05-09T06:54:03;100250.44;;;24.79
15709;BMP180;7954;51.914;8.420;2023-05-09T06:56:31;100243.13;;;24.75
15709;BMP180;7954;51.914;8.420;2023-05-09T06:58:59;100242.03;;;24.73
15709;BMP180;7954;51.914;8.420;2023-05-09T07:01:28;100236.44;;;24.77
15709;BMP180;7954;51.914;8.420;2023-05-09T07:03:56;100230.09;;;24.82
15709;BMP180;7954;51.914;8.420;2023-05-09T07:06:25;100224.91;;;24.82
15709;BMP180;7954;51.914;8.420;2023-05-09T07:08:54;100224.63;;;24.79
15709;BMP180;7954;51.914;8.420;2023-05-09T07:11:22;100235.41;;;24.83
15709;BMP180;7954;51.914;8.420;2023-05-09T07:13:50;100222.25;;;24.89
15709;BMP180;7954;51.914;8.420;2023-05-09T07:16:18;100212.88;;;24.98
15709;BMP180;7954;51.914;8.420;2023-05-09T07:18:48;100212.41;;;25.09
15709;BMP180;7954;51.914;8.420;2023-05-09T07:21:17;100215.03;;;25.17
15709;BMP180;7954;51.914;8.420;2023-05-09T07:23:47;100207.97;;;25.31
15709;BMP180;7954;51.914;8.420;2023-05-09T07:26:18;100204.53;;;25.39
15709;BMP180;7954;51.914;8.420;2023-05-09T07:28:47;100191.50;;;25.55
15709;BMP180;7954;51.914;8.420;2023-05-09T07:31:15;100193.53;;;25.66
15709;BMP180;7954;51.914;8.420;2023-05-09T07:33:43;100190.41;;;25.77
15709;BMP180;7954;51.914;8.420;2023-05-09T07:36:11;100191.53;;;25.95
15709;BMP180;7954;51.914;8.420;2023-05-09T07:38:40;100185.47;;;26.12
15709;BMP180;7954;51.914;8.420;2023-05-09T07:41:09;100179.56;;;26.21
15709;BMP180;7954;51.914;8.420;2023-05-09T07:43:39;100174.59;;;26.40
15709;BMP180;7954;51.914;8.420;2023-05-09T07:48:35;100164.66;;;26.69
15709;BMP180;7954;51.914;8.420;2023-05-09T07:51:03;100167.53;;;26.89
15709;BMP180;7954;51.914;8.420;2023-05-09T07:53:31;100163.56;;;27.01
15709;BMP180;7954;51.914;8.420;2023-05-09T07:55:59;100162.31;;;27.15
15709;BMP180;7954;51.914;8.420;2023-05-09T07:58:27;100163.66;;;27.28
15709;BMP180;7954;51.914;8.420;2023-05-09T08:00:57;100148.94;;;27.45
15709;BMP180;7954;51.914;8.420;2023-05-09T08:03:25;100150.84;;;27.65
15709;BMP180;7954;51.914;8.420;2023-05-09T08:05:53;100144.41;;;27.70
15709;BMP180;7954;51.914;8.420;2023-05-09T08:08:22;100143.47;;;27.78
15709;BMP180;7954;51.914;8.420;2023-05-09T08:10:50;100127.88;;;27.78
15709;BMP180;7954;51.914;8.420;2023-05-09T08:13:18;100132.53;;;27.90
15709;BMP180;7954;51.914;8.420;2023-05-09T08:15:49;100132.28;;;28.05
15709;BMP180;7954;51.914;8.420;2023-05-09T08:18:21;100118.13;;;28.20
15709;BMP180;7954;51.914;8.420;2023-05-09T08:20:49;100117.81;;;28.26
15709;BMP180;7954;51.914;8.420;2023-05-09T08:23:17;100114.78;;;28.21
15709;BMP180;7954;51.914;8.420;2023-05-09T08:25:51;100103.56;;;28.04
15709;BMP180;7954;51.914;8.420;2023-05-09T08:28:19;100112.22;;;27.94
15709;BMP180;7954;51.914;8.420;2023-05-09T08:30:49;100110.94;;;27.99
15709;BMP180;7954;51.914;8.420;2023-05-09T08:33:18;100103.16;;;27.99
15709;BMP180;7954;51.914;8.420;2023-05-09T08:35:50;100113.56;;;27.99
15709;BMP180;7954;51.914;8.420;2023-05-09T08:38:19;100101.41;;;28.08
15709;BMP180;7954;51.914;8.420;2023-05-09T08:40:47;100100.38;;;28.25
15709;BMP180;7954;51.914;8.420;2023-05-09T08:43:15;100105.28;;;28.40
15709;BMP180;7954;51.914;8.420;2023-05-09T08:45:46;100107.03;;;28.50
15709;BMP180;7954;51.914;8.420;2023-05-09T08:48:15;100100.69;;;28.56
15709;BMP180;7954;51.914;8.420;2023-05-09T08:50:43;100096.63;;;28.68
15709;BMP180;7954;51.914;8.420;2023-05-09T08:53:13;100096.97;;;28.62
15709;BMP180;7954;51.914;8.420;2023-05-09T08:55:41;100090.22;;;28.64
15709;BMP180;7954;51.914;8.420;2023-05-09T08:58:09;100087.25;;;28.70
15709;BMP180;7954;51.914;8.420;2023-05-09T09:00:39;100095.06;;;28.70
15709;BMP180;7954;51.914;8.420;2023-05-09T09:03:07;100085.16;;;28.66
15709;BMP180;7954;51.914;8.420;2023-05-09T09:05:40;100086.00;;;28.75
15709;BMP180;7954;51.914;8.420;2023-05-09T09:08:09;100079.81;;;28.83
15709;BMP180;7954;51.914;8.420;2023-05-09T09:10:40;100071.63;;;28.88
15709;BMP180;7954;51.914;8.420;2023-05-09T09:13:14;100066.88;;;29.03
15709;BMP180;7954;51.914;8.420;2023-05-09T09:15:44;100059.50;;;29.17
15709;BMP180;7954;51.914;8.420;2023-05-09T09:18:18;100058.66;;;29.36
15709;BMP180;7954;51.914;8.420;2023-05-09T09:20:52;100048.81;;;29.62
15709;BMP180;7954;51.914;8.420;2023-05-09T09:23:24;100044.28;;;29.90
15709;BMP180;7954;51.914;8.420;2023-05-09T09:25:58;100048.53;;;30.09
15709;BMP180;7954;51.914;8.420;2023-05-09T09:28:27;100049.03;;;30.15
15709;BMP180;7954;51.914;8.420;2023-05-09T09:30:55;100038.09;;;30.09
15709;BMP180;7954;51.914;8.420;2023-05-09T09:33:24;100031.88;;;30.07
15709;BMP180;7954;51.914;8.420;2023-05-09T09:35:54;100034.50;;;29.97
15709;BMP180;7954;51.914;8.420;2023-05-09T09:38:23;100036.69;;;29.83
15709;BMP180;7954;51.914;8.420;2023-05-09T09:40:52;100038.25;;;29.81
15709;BMP180;7954;51.914;8.420;2023-05-09T09:43:30;100019.22;;;30.01
15709;BMP180;7954;51.914;8.420;2023-05-09T09:46:00;100022.50;;;29.99
15709;BMP180;7954;51.914;8.420;2023-05-09T09:48:30;100017.56;;;30.02
15709;BMP180;7954;51.914;8.420;2023-05-09T09:51:07;100018.81;;;30.17
15709;BMP180;7954;51.914;8.420;2023-05-09T09:53:39;100014.16;;;30.13
15709;BMP180;7954;51.914;8.420;2023-05-09T09:56:08;100006.63;;;29.96
15709;BMP180;7954;51.914;8.420;2023-05-09T09:58:39;100005.84;;;29.97
15709;BMP180;7954;51.914;8.420;2023-05-09T10:01:09;100003.13;;;29.95
15709;BMP180;7954;51.914;8.420;2023-05-09T10:03:40;99990.81;;;30.14
15709;BMP180;7954;51.914;8.420;2023-05-09T10:06:09;99988.34;;;30.16
15709;BMP180;7954;51.914;8.420;2023-05-09T10:08:39;99984.38;;;30.31
15709;BMP180;7954;51.914;8.420;2023-05-09T10:11:08;99986.56;;;30.46
15709;BMP180;7954;51.914;8.420;2023-05-09T10:13:36;99978.34;;;30.52
15709;BMP180;7954;51.914;8.420;2023-05-09T10:16:07;99976.22;;;30.58
15709;BMP180;7954;51.914;8.420;2023-05-09T10:18:36;99975.50;;;30.70
15709;BMP180;7954;51.914;8.420;2023-05-09T10:21:07;99983.16;;;30.78
15709;BMP180;7954;51.914;8.420;2023-05-09T10:23:37;99970.13;;;30.78
15709;BMP180;7954;51.914;8.420;2023-05-09T10:26:16;99958.28;;;30.93
15709;BMP180;7954;51.914;8.420;2023-05-09T10:28:45;99958.28;;;31.15
15709;BMP180;7954;51.914;8.420;2023-05-09T10:31:20;99952.16;;;31.47
15709;BMP180;7954;51.914;8.420;2023-05-09T10:33:49;99945.53;;;31.62
15709;BMP180;7954;51.914;8.420;2023-05-09T10:36:19;99944.47;;;31.60
15709;BMP180;7954;51.914;8.420;2023-05-09T10:38:49;99938.38;;;31.71
15709;BMP180;7954;51.914;8.420;2023-05-09T10:41:19;99935.97;;;31.74
15709;BMP180;7954;51.914;8.420;2023-05-09T10:43:47;99927.72;;;31.91
15709;BMP180;7954;51.914;8.420;2023-05-09T10:46:17;99917.63;;;32.06
15709;BMP180;7954;51.914;8.420;2023-05-09T10:48:46;99905.78;;;32.23
15709;BMP180;7954;51.914;8.420;2023-05-09T10:51:15;99911.47;;;32.06
15709;BMP180;7954;51.914;8.420;2023-05-09T10:53:44;99908.84;;;31.83
15709;BMP180;7954;51.914;8.420;2023-05-09T10:56:23;99911.56;;;31.62
15709;BMP180;7954;51.914;8.420;2023-05-09T10:58:52;99903.38;;;31.69
15709;BMP180;7954;51.914;8.420;2023-05-09T11:01:36;99896.56;;;31.93
15709;BMP180;7954;51.914;8.420;2023-05-09T11:04:09;99896.13;;;31.99
15709;BMP180;7954;51.914;8.420;2023-05-09T11:06:45;99890.25;;;32.01
15709;BMP180;7954;51.914;8.420;2023-05-09T11:09:22;99884.41;;;32.17
15709;BMP180;7954;51.914;8.420;2023-05-09T11:11:53;99884.06;;;32.35
15709;BMP180;7954;51.914;8.420;2023-05-09T11:14:29;99878.09;;;32.49
15709;BMP180;7954;51.914;8.420;2023-05-09T11:17:00;99870.38;;;32.39
15709;BMP180;7954;51.914;8.420;2023-05-09T11:19:34;99871.63;;;32.44
15709;BMP180;7954;51.914;8.420;2023-05-09T11:22:11;99863.06;;;32.58
15709;BMP180;7954;51.914;8.420;2023-05-09T11:24:44;99859.34;;;32.79
15709;BMP180;7954;51.914;8.420;2023-05-09T11:27:15;99864.81;;;32.46
15709;BMP180;7954;51.914;8.420;2023-05-09T11:29:44;99854.31;;;32.10
15709;BMP180;7954;51.914;8.420;2023-05-09T11:32:15;99861.34;;;31.66
15709;BMP180;7954;51.914;8.420;2023-05-09T11:34:44;99856.13;;;30.99
15709;BMP180;7954;51.914;8.420;2023-05-09T11:37:15;99862.97;;;30.65
15709;BMP180;7954;51.914;8.420;2023-05-09T11:39:57;99864.22;;;30.59
15709;BMP180;7954;51.914;8.420;2023-05-09T11:42:26;99850.13;;;30.57
15709;BMP180;7954;51.914;8.420;2023-05-09T11:44:55;99851.81;;;30.78
15709;BMP180;7954;51.914;8.420;2023-05-09T11:47:25;99843.22;;;30.90
15709;BMP180;7954;51.914;8.420;2023-05-09T11:49:54;99838.34;;;31.16
15709;BMP180;7954;51.914;8.420;2023-05-09T11:52:22;99829.09;;;31.54
15709;BMP180;7954;51.914;8.420;2023-05-09T11:54:51;99828.31;;;31.78
15709;BMP180;7954;51.914;8.420;2023-05-09T11:57:19;99833.41;;;32.10
15709;BMP180;7954;51.914;8.420;2023-05-09T11:59:47;99821.50;;;32.38
15709;BMP180;7954;51.914;8.420;2023-05-09T12:02:15;99805.88;;;32.51
15709;BMP180;7954;51.914;8.420;2023-05-09T12:04:45;99814.66;;;32.40
15709;BMP180;7954;51.914;8.420;2023-05-09T12:07:13;99808.50;;;32.51
15709;BMP180;7954;51.914;8.420;2023-05-09T12:09:42;99800.09;;;32.55
15709;BMP180;7954;51.914;8.420;2023-05-09T12:12:11;99800.25;;;32.34
15709;BMP180;7954;51.914;8.420;2023-05-09T12:14:40;99784.03;;;32.51
15709;BMP180;7954;51.914;8.420;2023-05-09T12:17:08;99796.97;;;32.60
15709;BMP180;7954;51.914;8.420;2023-05-09T12:19:36;99799.63;;;32.49
15709;BMP180;7954;51.914;8.420;2023-05-09T12:22:05;99785.84;;;32.52
15709;BMP180;7954;51.914;8.420;2023-05-09T12:24:34;99786.50;;;32.60
15709;BMP180;7954;51.914;8.420;2023-05-09T12:27:03;99782.06;;;33.08
15709;BMP180;7954;51.914;8.420;2023-05-09T12:29:33;99769.09;;;33.48
15709;BMP180;7954;51.914;8.420;2023-05-09T12:32:01;99770.94;;;33.75
15709;BMP180;7954;51.914;8.420;2023-05-09T12:34:29;99764.34;;;34.07
15709;BMP180;7954;51.914;8.420;2023-05-09T12:36:57;99751.41;;;34.23
15709;BMP180;7954;51.914;8.420;2023-05-09T12:39:30;99744.59;;;33.99
15709;BMP180;7954;51.914;8.420;2023-05-09T12:41:59;99753.38;;;33.87
15709;BMP180;7954;51.914;8.420;2023-05-09T12:44:27;99752.97;;;34.07
15709;BMP180;7954;51.914;8.420;2023-05-09T12:46:56;99740.66;;;34.06
15709;BMP180;7954;51.914;8.420;2023-05-09T12:49:25;99760.94;;;34.36
15709;BMP180;7954;51.914;8.420;2023-05-09T12:51:55;99732.66;;;35.15
15709;BMP180;7954;51.914;8.420;2023-05-09T12:54:24;99731.72;;;35.43
15709;BMP180;7954;51.914;8.420;2023-05-09T12:56:56;99737.47;;;36.11
15709;BMP180;7954;51.914;8.420;2023-05-09T12:59:26;99721.28;;;36.83
15709;BMP180;7954;51.914;8.420;2023-05-09T13:01:55;99714.84;;;37.12
15709;BMP180;7954;51.914;8.420;2023-05-09T13:04:25;99725.88;;;37.21
15709;BMP180;7954;51.914;8.420;2023-05-09T13:06:55;99712.78;;;36.73
15709;BMP180;7954;51.914;8.420;2023-05-09T13:09:26;99708.75;;;36.16
15709;BMP180;7954;51.914;8.420;2023-05-09T13:11:56;99711.97;;;35.80
15709;BMP180;7954;51.914;8.420;2023-05-09T13:14:25;99710.38;;;35.68
15709;BMP180;7954;51.914;8.420;2023-05-09T13:16:53;99704.50;;;35.88
15709;BMP180;7954;51.914;8.420;2023-05-09T13:19:21;99700.81;;;36.30
15709;BMP180;7954;51.914;8.420;2023-05-09T13:21:48;99668.41;;;37.48
15709;BMP180;7954;51.914;8.420;2023-05-09T13:24:17;99662.59;;;36.86
15709;BMP180;7954;51.914;8.420;2023-05-09T13:26:46;99665.28;;;35.91
15709;BMP180;7954;51.914;8.420;2023-05-09T13:29:20;99656.78;;;34.76
15709;BMP180;7954;51.914;8.420;2023-05-09T13:31:47;99667.47;;;33.83
15709;BMP180;7954;51.914;8.420;2023-05-09T13:34:16;99670.59;;;33.37
15709;BMP180;7954;51.914;8.420;2023-05-09T13:36:44;99661.19;;;33.02
15709;BMP180;7954;51.914;8.420;2023-05-09T13:39:11;99660.97;;;32.73
15709;BMP180;7954;51.914;8.420;2023-05-09T13:41:40;99668.56;;;32.33
15709;BMP180;7954;51.914;8.420;2023-05-09T13:44:08;99660.78;;;32.09
15709;BMP180;7954;51.914;8.420;2023-05-09T13:46:37;99670.81;;;31.56
15709;BMP180;7954;51.914;8.420;2023-05-09T13:49:09;99664.72;;;31.21
15709;BMP180;7954;51.914;8.420;2023-05-09T13:51:37;99671.50;;;30.85
15709;BMP180;7954;51.914;8.420;2023-05-09T13:54:06;99669.53;;;30.59
15709;BMP180;7954;51.914;8.420;2023-05-09T13:56:39;99671.59;;;30.31
15709;BMP180;7954;51.914;8.420;2023-05-09T13:59:08;99676.75;;;30.08
15709;BMP180;7954;51.914;8.420;2023-05-09T14:01:37;99687.53;;;29.91
15709;BMP180;7954;51.914;8.420;2023-05-09T14:04:06;99693.19;;;29.76
15709;BMP180;7954;51.914;8.420;2023-05-09T14:06:35;99693.97;;;29.53
15709;BMP180;7954;51.914;8.420;2023-05-09T14:09:03;99697.56;;;29.34
15709;BMP180;7954;51.914;8.420;2023-05-09T14:11:32;99686.16;;;29.53
15709;BMP180;7954;51.914;8.420;2023-05-09T14:14:01;99681.88;;;29.96
15709;BMP180;7954;51.914;8.420;2023-05-09T14:16:30;99670.34;;;30.59
15709;BMP180;7954;51.914;8.420;2023-05-09T14:18:59;99666.75;;;31.02
15709;BMP180;7954;51.914;8.420;2023-05-09T14:21:28;99661.63;;;31.49
15709;BMP180;7954;51.914;8.420;2023-05-09T14:23:56;99659.72;;;31.71
15709;BMP180;7954;51.914;8.420;2023-05-09T14:26:24;99657.91;;;31.82